Time;durP1;ratioP1;P1;durP2;ratioP2;P2;SDS_P1;SDS_P2;PMS_P1;PMS_P2;Temp;Humidity;BMP_temperature;BMP_pressure;BME280_temperature;BME280_humidity;BME280_pressure;Samples;Min_cycle;Max_cycle;Signal;HPM_P1;HPM_P2
2023/03/15 00:00:20;;;;;;;12.00;2.00;;;;;;;;;;5035407;28;20021;-71
2023/03/15 00:02:46;;;;;;;12.10;2.08;;;;;;;;;;5035402;28;20026;-70
2023/03/15 00:05:13;;;;;;;11.85;2.25;;;;;;;;;;5033956;28;20486;-71
2023/03/15 00:07:40;;;;;;;12.02;2.00;;;;;;;;;;5035475;28;20024;-71
2023/03/15 00:10:06;;;;;;;14.38;2.30;;;;;;;;;;5035406;28;20067;-71
2023/03/15 00:12:33;;;;;;;13.70;2.40;;;;;;;;;;5035294;28;20583;-70
2023/03/15 00:14:59;;;;;;;12.25;2.35;;;;;;;;;;5035179;28;20021;-71
2023/03/15 00:17:25;;;;;;;17.58;2.67;;;;;;;;;;5035263;28;20045;-71
2023/03/15 00:19:52;;;;;;;14.02;3.00;;;;;;;;;;5034782;28;20018;-71
2023/03/15 00:22:18;;;;;;;14.93;2.30;;;;;;;;;;5035386;28;20136;-70
2023/03/15 00:24:44;;;;;;;13.30;3.47;;;;;;;;;;5035354;28;20021;-71
2023/03/15 00:27:11;;;;;;;17.48;2.80;;;;;;;;;;5035408;28;20021;-71
2023/03/15 00:29:37;;;;;;;15.75;2.42;;;;;;;;;;5035178;28;20029;-70
2023/03/15 00:32:03;;;;;;;15.07;2.40;;;;;;;;;;5035143;28;20034;-71
2023/03/15 00:34:32;;;;;;;13.75;2.30;;;;;;;;;;5034686;28;20032;-71
2023/03/15 00:36:58;;;;;;;17.73;2.95;;;;;;;;;;5034864;28;20029;-71
2023/03/15 00:39:25;;;;;;;17.38;3.45;;;;;;;;;;5034628;28;20029;-71
2023/03/15 00:41:55;;;;;;;13.23;3.28;;;;;;;;;;5034805;28;20501;-71
2023/03/15 00:44:23;;;;;;;15.63;2.77;;;;;;;;;;5034789;28;20059;-71
2023/03/15 00:46:49;;;;;;;13.73;2.72;;;;;;;;;;5034620;28;20014;-70
2023/03/15 00:49:17;;;;;;;12.18;2.08;;;;;;;;;;5034454;28;20053;-71
2023/03/15 00:51:43;;;;;;;7.43;1.95;;;;;;;;;;5033620;28;20036;-71
2023/03/15 00:54:12;;;;;;;10.02;2.00;;;;;;;;;;5034406;28;20025;-71
2023/03/15 00:56:40;;;;;;;11.05;2.15;;;;;;;;;;5034712;28;20022;-71
2023/03/15 00:59:06;;;;;;;18.23;3.55;;;;;;;;;;5034647;28;20027;-71
2023/03/15 01:01:32;;;;;;;19.45;5.15;;;;;;;;;;5034980;28;20024;-71
2023/03/15 01:04:00;;;;;;;23.70;4.72;;;;;;;;;;5034515;28;20032;-71
2023/03/15 01:06:27;;;;;;;22.73;6.22;;;;;;;;;;5034643;28;20025;-71
2023/03/15 01:08:55;;;;;;;19.02;3.95;;;;;;;;;;5034515;28;20036;-71
2023/03/15 01:11:23;;;;;;;13.82;4.32;;;;;;;;;;5034441;28;20016;-71
2023/03/15 01:13:53;;;;;;;14.82;3.22;;;;;;;;;;5034248;28;20033;-71
2023/03/15 01:16:20;;;;;;;16.45;2.50;;;;;;;;;;5034012;28;20040;-71
2023/03/15 01:18:46;;;;;;;15.85;2.50;;;;;;;;;;5033790;28;20039;-71
2023/03/15 01:21:13;;;;;;;14.05;1.90;;;;;;;;;;5034157;28;20032;-71
2023/03/15 01:23:40;;;;;;;11.77;1.95;;;;;;;;;;5033878;28;20025;-71
2023/03/15 01:26:07;;;;;;;9.07;1.70;;;;;;;;;;5034326;28;20022;-71
2023/03/15 01:28:33;;;;;;;10.90;1.80;;;;;;;;;;5033950;28;20021;-71
2023/03/15 01:31:00;;;;;;;14.77;2.10;;;;;;;;;;5033496;28;20036;-71
2023/03/15 01:33:26;;;;;;;11.75;2.00;;;;;;;;;;5034015;28;20030;-71
2023/03/15 01:36:03;;;;;;;11.60;2.15;;;;;;;;;;5034200;28;20025;-71
2023/03/15 01:38:30;;;;;;;9.98;1.60;;;;;;;;;;5033851;28;20049;-71
2023/03/15 01:40:57;;;;;;;10.27;1.77;;;;;;;;;;5033687;28;20021;-71
2023/03/15 01:43:24;;;;;;;15.07;2.03;;;;;;;;;;5033456;28;20041;-71
2023/03/15 01:45:56;;;;;;;9.75;2.05;;;;;;;;;;5033293;28;20029;-71
2023/03/15 01:48:25;;;;;;;11.75;2.38;;;;;;;;;;5033764;28;20045;-71
2023/03/15 01:50:54;;;;;;;15.00;2.50;;;;;;;;;;5033274;28;20021;-71
2023/03/15 01:53:21;;;;;;;10.40;1.83;;;;;;;;;;5033363;28;20040;-71
2023/03/15 01:55:48;;;;;;;9.77;1.67;;;;;;;;;;5033511;28;20037;-70
2023/03/15 01:58:15;;;;;;;10.63;1.40;;;;;;;;;;5033259;28;20387;-70
2023/03/15 02:00:41;;;;;;;15.00;1.25;;;;;;;;;;5033173;28;20033;-70
2023/03/15 02:03:13;;;;;;;8.02;1.52;;;;;;;;;;5033447;28;20033;-70
2023/03/15 02:05:44;;;;;;;13.32;2.65;;;;;;;;;;5065102;28;20028;-70
2023/03/15 02:08:12;;;;;;;10.77;1.83;;;;;;;;;;5033400;28;20039;-71
2023/03/15 02:10:41;;;;;;;11.68;2.15;;;;;;;;;;5033276;28;20025;-71
2023/03/15 02:13:07;;;;;;;13.18;2.70;;;;;;;;;;5032862;28;20026;-71
2023/03/15 02:15:34;;;;;;;11.50;1.92;;;;;;;;;;5032748;28;20397;-71
2023/03/15 02:18:00;;;;;;;8.15;2.08;;;;;;;;;;5032993;28;20087;-71
2023/03/15 02:20:45;;;;;;;9.95;2.25;;;;;;;;;;5031682;28;20027;-71
2023/03/15 02:23:16;;;;;;;13.95;1.85;;;;;;;;;;5032873;28;20021;-70
2023/03/15 02:25:48;;;;;;;14.10;2.05;;;;;;;;;;5031556;28;20514;-71
2023/03/15 02:28:16;;;;;;;10.30;2.15;;;;;;;;;;5032771;28;20510;-71
2023/03/15 02:30:42;;;;;;;11.98;1.67;;;;;;;;;;5032586;28;20027;-71
2023/03/15 02:33:14;;;;;;;10.27;1.77;;;;;;;;;;5032841;28;20025;-71
2023/03/15 02:35:40;;;;;;;14.90;2.10;;;;;;;;;;5032634;28;20024;-70
2023/03/15 02:38:06;;;;;;;11.27;2.05;;;;;;;;;;5032309;28;20039;-71
2023/03/15 02:40:33;;;;;;;11.75;1.80;;;;;;;;;;5032709;28;20405;-71
2023/03/15 02:43:08;;;;;;;10.07;2.05;;;;;;;;;;5032215;28;20055;-71
2023/03/15 02:45:35;;;;;;;13.93;1.70;;;;;;;;;;5032262;28;20026;-71
2023/03/15 02:48:03;;;;;;;10.75;1.80;;;;;;;;;;5032444;28;20428;-71
2023/03/15 02:50:29;;;;;;;12.90;2.22;;;;;;;;;;5032414;28;20025;-71
2023/03/15 02:52:55;;;;;;;9.90;1.63;;;;;;;;;;5032587;28;20025;-71
2023/03/15 02:55:22;;;;;;;13.40;1.80;;;;;;;;;;5032419;28;20021;-71
2023/03/15 02:57:49;;;;;;;13.15;2.10;;;;;;;;;;5032281;28;20595;-71
2023/03/15 03:00:15;;;;;;;10.75;1.83;;;;;;;;;;5031931;28;20028;-71
2023/03/15 03:02:43;;;;;;;11.95;1.60;;;;;;;;;;5031897;28;20026;-71
2023/03/15 03:05:10;;;;;;;12.40;2.13;;;;;;;;;;5031700;28;20039;-71
2023/03/15 03:07:36;;;;;;;14.77;1.60;;;;;;;;;;5032105;28;20017;-71
2023/03/15 03:10:04;;;;;;;12.85;1.65;;;;;;;;;;5032465;28;20028;-70
2023/03/15 03:12:30;;;;;;;13.02;1.95;;;;;;;;;;5031854;28;20029;-71
2023/03/15 03:14:56;;;;;;;15.10;1.88;;;;;;;;;;5032207;28;20428;-71
2023/03/15 03:17:23;;;;;;;13.55;2.22;;;;;;;;;;5032098;28;20037;-71
2023/03/15 03:19:50;;;;;;;13.55;2.20;;;;;;;;;;5032601;28;20051;-70
2023/03/15 03:22:17;;;;;;;13.48;2.47;;;;;;;;;;5032106;28;20029;-71
2023/03/15 03:24:44;;;;;;;16.05;2.20;;;;;;;;;;5032017;28;20018;-71
2023/03/15 03:27:13;;;;;;;9.75;2.05;;;;;;;;;;5032065;28;20055;-71
2023/03/15 03:29:40;;;;;;;10.18;1.95;;;;;;;;;;5031961;28;20017;-71
2023/03/15 03:32:07;;;;;;;10.63;2.00;;;;;;;;;;5031919;28;20021;-70
2023/03/15 03:34:34;;;;;;;11.25;1.70;;;;;;;;;;5032006;28;20436;-71
2023/03/15 03:37:00;;;;;;;14.52;2.10;;;;;;;;;;5031917;28;20040;-70
2023/03/15 03:39:27;;;;;;;9.43;1.90;;;;;;;;;;5031734;28;20393;-71
2023/03/15 03:41:53;;;;;;;18.25;2.53;;;;;;;;;;5031592;28;20028;-70
2023/03/15 03:44:19;;;;;;;15.93;2.20;;;;;;;;;;5031788;28;20042;-71
2023/03/15 03:46:46;;;;;;;15.63;2.00;;;;;;;;;;5032017;28;20079;-71
2023/03/15 03:49:13;;;;;;;10.75;1.63;;;;;;;;;;5031858;28;20496;-71
2023/03/15 03:51:40;;;;;;;14.27;2.00;;;;;;;;;;5032198;28;20075;-70
2023/03/15 03:54:06;;;;;;;14.90;2.58;;;;;;;;;;5031732;28;20033;-71
2023/03/15 03:56:32;;;;;;;24.27;2.55;;;;;;;;;;5031667;28;20027;-71
2023/03/15 03:58:58;;;;;;;7.03;1.75;;;;;;;;;;5031729;28;20029;-70
2023/03/15 04:01:25;;;;;;;12.73;1.75;;;;;;;;;;5031846;28;20029;-71
2023/03/15 04:03:51;;;;;;;16.00;2.10;;;;;;;;;;5031659;28;20036;-71
2023/03/15 04:06:17;;;;;;;16.50;2.00;;;;;;;;;;5031895;28;20070;-71
2023/03/15 04:08:44;;;;;;;10.13;1.98;;;;;;;;;;5031601;28;20028;-71
2023/03/15 04:11:10;;;;;;;11.82;1.90;;;;;;;;;;5031488;28;20034;-71
2023/03/15 04:13:36;;;;;;;12.32;2.13;;;;;;;;;;5030419;28;20524;-71
2023/03/15 04:16:05;;;;;;;10.02;1.90;;;;;;;;;;5034996;28;20029;-71
2023/03/15 04:18:31;;;;;;;12.77;1.88;;;;;;;;;;5035169;28;20090;-71
2023/03/15 04:20:58;;;;;;;8.02;1.48;;;;;;;;;;5035100;28;20333;-71
2023/03/15 04:23:24;;;;;;;13.05;1.80;;;;;;;;;;5035380;28;20035;-71
2023/03/15 04:25:53;;;;;;;10.68;1.85;;;;;;;;;;5033821;28;20041;-70
2023/03/15 04:28:21;;;;;;;11.68;1.77;;;;;;;;;;5035070;28;20025;-71
2023/03/15 04:30:48;;;;;;;17.48;2.33;;;;;;;;;;5035354;28;20018;-71
2023/03/15 04:33:15;;;;;;;12.27;1.95;;;;;;;;;;5035252;28;20026;-71
2023/03/15 04:35:44;;;;;;;14.95;1.83;;;;;;;;;;5033891;28;20030;-70
2023/03/15 04:38:10;;;;;;;11.88;2.05;;;;;;;;;;5034730;28;20037;-71
2023/03/15 04:40:36;;;;;;;9.95;1.58;;;;;;;;;;5034618;28;20029;-70
2023/03/15 04:43:03;;;;;;;15.07;1.70;;;;;;;;;;5034584;28;20036;-71
2023/03/15 04:45:30;;;;;;;15.63;2.05;;;;;;;;;;5034767;28;20033;-70
2023/03/15 04:47:57;;;;;;;15.70;1.70;;;;;;;;;;5034760;28;20091;-70
2023/03/15 04:50:24;;;;;;;15.73;2.33;;;;;;;;;;5034649;28;20028;-70
2023/03/15 04:52:50;;;;;;;12.70;2.10;;;;;;;;;;5034626;28;20034;-70
2023/03/15 04:55:16;;;;;;;11.13;1.58;;;;;;;;;;5034557;28;20022;-70
2023/03/15 04:57:43;;;;;;;14.90;2.03;;;;;;;;;;5034685;28;20079;-70
2023/03/15 05:00:11;;;;;;;12.15;1.75;;;;;;;;;;5034442;28;20527;-70
2023/03/15 05:02:40;;;;;;;12.73;1.90;;;;;;;;;;5034373;28;20381;-70
2023/03/15 05:05:07;;;;;;;17.58;2.17;;;;;;;;;;5034619;28;20029;-70
2023/03/15 05:07:34;;;;;;;14.52;1.92;;;;;;;;;;5034559;28;20025;-70
2023/03/15 05:10:00;;;;;;;10.63;1.88;;;;;;;;;;5034181;28;20079;-71
2023/03/15 05:12:27;;;;;;;22.55;1.98;;;;;;;;;;5034140;28;20040;-70
2023/03/15 05:14:53;;;;;;;14.95;2.13;;;;;;;;;;5034175;28;20028;-70
2023/03/15 05:17:21;;;;;;;20.30;2.35;;;;;;;;;;5034146;28;20030;-70
2023/03/15 05:19:48;;;;;;;17.65;2.05;;;;;;;;;;5033995;28;20401;-72
2023/03/15 05:22:14;;;;;;;12.48;2.15;;;;;;;;;;5033919;28;20017;-71
2023/03/15 05:24:41;;;;;;;10.82;1.63;;;;;;;;;;5034059;28;20043;-72
2023/03/15 05:27:07;;;;;;;19.63;2.67;;;;;;;;;;5033067;28;20021;-71
2023/03/15 05:29:33;;;;;;;24.02;2.85;;;;;;;;;;5034469;28;20028;-71
2023/03/15 05:32:03;;;;;;;9.80;1.75;;;;;;;;;;5033904;28;20500;-72
2023/03/15 05:34:31;;;;;;;14.05;2.28;;;;;;;;;;5034176;28;20051;-71
2023/03/15 05:37:00;;;;;;;14.23;1.98;;;;;;;;;;5033610;28;20474;-72
2023/03/15 05:39:26;;;;;;;14.35;2.17;;;;;;;;;;5033252;28;20028;-71
2023/03/15 05:41:52;;;;;;;10.25;2.15;;;;;;;;;;5032781;28;20025;-71
2023/03/15 05:44:19;;;;;;;11.50;2.05;;;;;;;;;;5033475;28;20056;-72
2023/03/15 05:46:45;;;;;;;11.57;1.95;;;;;;;;;;5033829;28;20036;-71
2023/03/15 05:49:11;;;;;;;13.48;2.25;;;;;;;;;;5033508;28;20482;-71
2023/03/15 05:51:38;;;;;;;14.68;2.63;;;;;;;;;;5033302;28;20040;-71
2023/03/15 05:54:04;;;;;;;13.93;2.08;;;;;;;;;;5033076;28;20496;-71
2023/03/15 05:56:30;;;;;;;15.73;2.85;;;;;;;;;;5033471;28;20016;-72
2023/03/15 05:58:57;;;;;;;9.88;1.80;;;;;;;;;;5033312;28;20040;-71
2023/03/15 06:01:23;;;;;;;12.98;1.85;;;;;;;;;;5032122;28;20506;-71
2023/03/15 06:03:49;;;;;;;9.00;1.63;;;;;;;;;;5033273;28;20018;-71
2023/03/15 06:06:16;;;;;;;15.10;2.40;;;;;;;;;;5033147;28;20536;-72
2023/03/15 06:08:42;;;;;;;16.73;4.22;;;;;;;;;;5032976;28;20025;-71
2023/03/15 06:11:08;;;;;;;14.98;4.15;;;;;;;;;;5033050;28;20405;-71
2023/03/15 06:13:35;;;;;;;14.68;4.78;;;;;;;;;;5033010;28;20323;-72
2023/03/15 06:16:01;;;;;;;13.50;2.67;;;;;;;;;;5033130;28;20494;-72
2023/03/15 06:18:27;;;;;;;18.20;2.75;;;;;;;;;;5031752;28;20037;-72
2023/03/15 06:20:54;;;;;;;14.98;2.97;;;;;;;;;;5032579;28;20025;-71
2023/03/15 06:23:20;;;;;;;11.82;2.65;;;;;;;;;;5032921;28;20387;-72
2023/03/15 06:25:47;;;;;;;19.98;2.80;;;;;;;;;;5032808;28;20500;-71
2023/03/15 06:28:13;;;;;;;14.73;2.85;;;;;;;;;;5064698;28;20025;-72
2023/03/15 06:30:40;;;;;;;15.77;3.53;;;;;;;;;;5032850;28;20486;-72
2023/03/15 06:33:06;;;;;;;15.18;2.88;;;;;;;;;;5031627;28;20428;-71
2023/03/15 06:35:32;;;;;;;16.42;2.30;;;;;;;;;;5032670;28;20032;-72
2023/03/15 06:37:59;;;;;;;17.20;2.97;;;;;;;;;;5032346;28;20033;-71
2023/03/15 06:40:25;;;;;;;14.13;2.63;;;;;;;;;;5032468;28;20063;-72
2023/03/15 06:42:53;;;;;;;13.57;2.90;;;;;;;;;;5033173;28;20040;-71
2023/03/15 06:45:19;;;;;;;18.20;2.53;;;;;;;;;;5033308;28;20034;-72
2023/03/15 06:47:46;;;;;;;13.13;3.33;;;;;;;;;;5033240;28;20041;-71
2023/03/15 06:50:12;;;;;;;13.88;2.20;;;;;;;;;;5033115;28;20096;-72
2023/03/15 06:52:38;;;;;;;14.25;3.40;;;;;;;;;;5032521;28;20393;-71
2023/03/15 06:55:05;;;;;;;13.15;3.40;;;;;;;;;;5032427;28;20037;-72
2023/03/15 06:57:32;;;;;;;13.20;3.70;;;;;;;;;;5032266;28;20498;-72
2023/03/15 06:59:58;;;;;;;16.50;5.72;;;;;;;;;;5032596;28;20021;-71
2023/03/15 07:02:24;;;;;;;17.63;4.70;;;;;;;;;;5032165;28;20021;-72
2023/03/15 07:04:50;;;;;;;16.98;4.57;;;;;;;;;;5032195;28;20020;-72
2023/03/15 07:07:17;;;;;;;12.13;3.05;;;;;;;;;;5032139;28;20079;-72
2023/03/15 07:09:43;;;;;;;10.13;2.00;;;;;;;;;;5032315;28;20025;-72
2023/03/15 07:12:10;;;;;;;11.77;2.47;;;;;;;;;;5032273;28;20037;-72
2023/03/15 07:14:37;;;;;;;10.23;2.50;;;;;;;;;;5031653;28;20432;-72
2023/03/15 07:17:03;;;;;;;9.90;2.55;;;;;;;;;;5027480;28;20379;-72
2023/03/15 07:19:29;;;;;;;13.57;2.55;;;;;;;;;;5031596;28;20024;-72
2023/03/15 07:21:56;;;;;;;10.70;2.25;;;;;;;;;;5031698;28;20028;-72
2023/03/15 07:24:22;;;;;;;12.48;2.17;;;;;;;;;;5031805;28;20029;-72
2023/03/15 07:26:53;;;;;;;16.20;2.88;;;;;;;;;;5027229;28;20029;-73
2023/03/15 07:29:19;;;;;;;11.90;2.58;;;;;;;;;;5030175;28;20026;-71
2023/03/15 07:31:46;;;;;;;13.27;2.72;;;;;;;;;;5028897;28;20448;-72
2023/03/15 07:34:12;;;;;;;9.32;2.35;;;;;;;;;;5030744;28;20026;-72
2023/03/15 07:36:38;;;;;;;10.95;2.63;;;;;;;;;;5029809;28;20389;-72
2023/03/15 07:39:04;;;;;;;8.55;2.00;;;;;;;;;;5031300;28;20037;-72
2023/03/15 07:41:31;;;;;;;13.88;2.10;;;;;;;;;;5030257;28;20440;-72
2023/03/15 07:43:57;;;;;;;9.95;2.33;;;;;;;;;;5031169;28;20041;-72
2023/03/15 07:46:23;;;;;;;14.40;2.42;;;;;;;;;;5030348;28;20029;-71
2023/03/15 07:48:50;;;;;;;15.30;4.03;;;;;;;;;;5035559;28;20034;-71
2023/03/15 07:51:16;;;;;;;14.57;2.70;;;;;;;;;;5033983;28;20437;-71
2023/03/15 07:53:43;;;;;;;13.07;2.58;;;;;;;;;;5033820;28;20040;-71
2023/03/15 07:56:09;;;;;;;10.43;2.15;;;;;;;;;;5034785;28;20021;-71
2023/03/15 07:58:36;;;;;;;12.35;2.28;;;;;;;;;;5034477;28;20090;-71
2023/03/15 08:01:02;;;;;;;11.23;2.58;;;;;;;;;;5032768;28;20035;-71
2023/03/15 08:03:28;;;;;;;11.63;3.92;;;;;;;;;;5032567;28;20504;-72
2023/03/15 08:05:55;;;;;;;14.57;4.00;;;;;;;;;;5034587;28;20026;-71
2023/03/15 08:08:21;;;;;;;10.35;2.38;;;;;;;;;;5034406;28;20021;-72
2023/03/15 08:10:47;;;;;;;9.40;1.80;;;;;;;;;;5034244;28;20417;-72
2023/03/15 08:13:14;;;;;;;10.23;2.05;;;;;;;;;;5034243;28;20055;-72
2023/03/15 08:15:40;;;;;;;5.72;1.50;;;;;;;;;;5034118;28;20033;-72
2023/03/15 09:30:03;;;;;;;4.65;1.30;;;;;;;;;;4029358;29;20076;-71
2023/03/15 09:32:34;;;;;;;3.03;1.13;;;;;;;;;;4918824;29;20032;-70
2023/03/15 09:35:02;;;;;;;4.13;2.20;;;;;;;;;;4915859;29;20526;-71
2023/03/15 09:37:28;;;;;;;6.00;2.40;;;;;;;;;;4924198;29;20036;-70
2023/03/15 09:39:55;;;;;;;3.92;1.80;;;;;;;;;;4915900;29;20396;-70
2023/03/15 09:42:43;;;;;;;5.40;1.52;;;;;;;;;;4916986;29;20035;-70
2023/03/15 09:45:12;;;;;;;5.10;1.20;;;;;;;;;;4917978;29;20032;-71
2023/03/15 09:47:50;;;;;;;4.25;1.40;;;;;;;;;;4918761;29;20035;-71
2023/03/15 09:50:26;;;;;;;4.13;1.27;;;;;;;;;;4914987;29;20030;-70
2023/03/15 09:52:53;;;;;;;4.57;1.20;;;;;;;;;;4916153;29;20020;-70
2023/03/15 09:55:21;;;;;;;4.13;1.40;;;;;;;;;;4915939;29;20032;-71
2023/03/15 09:57:50;;;;;;;4.60;1.50;;;;;;;;;;4926503;29;20032;-70
2023/03/15 10:00:20;;;;;;;4.50;1.60;;;;;;;;;;4926129;29;20024;-70
2023/03/15 10:02:47;;;;;;;;;;;;;;;;;;4916208;29;20024;-70
2023/03/15 10:05:18;;;;;;;3.90;1.55;;;;;;;;;;4918677;29;19914;-70
2023/03/15 10:07:45;;;;;;;4.63;2.00;;;;;;;;;;4920059;29;20702;-69
2023/03/15 10:10:18;;;;;;;2.88;1.20;;;;;;;;;;4917137;29;20028;-71
2023/03/15 10:13:03;;;;;;;7.28;1.30;;;;;;;;;;4917398;29;20035;-70
2023/03/15 10:15:52;;;;;;;4.00;1.42;;;;;;;;;;4932100;29;20038;-70
2023/03/15 10:18:37;;;;;;;5.00;1.20;;;;;;;;;;4916445;29;20050;-70
2023/03/15 10:21:16;;;;;;;4.25;1.23;;;;;;;;;;4919413;29;20038;-71
2023/03/15 10:23:48;;;;;;;2.53;1.23;;;;;;;;;;4915680;29;20024;-71
2023/03/15 10:26:17;;;;;;;4.35;1.50;;;;;;;;;;4926718;29;20055;-71
2023/03/15 10:28:44;;;;;;;3.38;1.75;;;;;;;;;;4912835;29;20083;-71
2023/03/15 10:31:15;;;;;;;3.53;1.25;;;;;;;;;;4931164;29;20046;-70
2023/03/15 10:33:42;;;;;;;4.07;1.20;;;;;;;;;;4933117;29;20496;-70
2023/03/15 10:36:19;;;;;;;3.63;1.35;;;;;;;;;;4932498;29;20074;-70
2023/03/15 10:38:47;;;;;;;3.67;1.25;;;;;;;;;;4938052;29;20039;-70
2023/03/15 10:41:14;;;;;;;3.28;0.98;;;;;;;;;;4946701;29;20034;-70
2023/03/15 10:43:41;;;;;;;2.97;0.95;;;;;;;;;;4949411;29;20059;-70
2023/03/15 10:46:11;;;;;;;2.15;0.90;;;;;;;;;;4943448;29;20035;-71
2023/03/15 10:48:38;;;;;;;2.67;0.93;;;;;;;;;;4939325;29;20086;-69
2023/03/15 10:51:15;;;;;;;3.10;1.10;;;;;;;;;;4928238;29;20028;-71
2023/03/15 10:54:08;;;;;;;2.97;1.02;;;;;;;;;;4933561;29;20038;-70
2023/03/15 10:56:37;;;;;;;2.83;1.00;;;;;;;;;;4928586;29;20036;-70
2023/03/15 10:59:03;;;;;;;4.00;1.20;;;;;;;;;;4922154;29;20048;-70
2023/03/15 11:01:34;;;;;;;2.95;1.23;;;;;;;;;;4934529;29;20020;-70
2023/03/15 11:04:06;;;;;;;3.90;1.02;;;;;;;;;;4935074;29;20039;-70
2023/03/15 11:06:39;;;;;;;3.40;0.90;;;;;;;;;;4935025;29;20480;-70
2023/03/15 11:09:10;;;;;;;3.13;1.05;;;;;;;;;;4934950;29;20040;-70
2023/03/15 11:11:48;;;;;;;3.33;1.20;;;;;;;;;;4934645;29;20028;-70
2023/03/15 11:14:15;;;;;;;4.07;1.20;;;;;;;;;;4934965;29;20078;-70
2023/03/15 11:16:41;;;;;;;3.17;1.20;;;;;;;;;;4934781;29;20531;-70
2023/03/15 11:19:13;;;;;;;5.68;1.42;;;;;;;;;;4934386;29;20032;-70
2023/03/15 11:21:40;;;;;;;4.30;1.30;;;;;;;;;;4934640;29;20062;-71
2023/03/15 11:24:07;;;;;;;2.88;1.17;;;;;;;;;;4933982;29;20028;-70
2023/03/15 11:26:37;;;;;;;3.10;1.10;;;;;;;;;;4934838;29;20080;-70
2023/03/15 11:29:07;;;;;;;2.17;1.00;;;;;;;;;;4934164;29;20042;-70
2023/03/15 11:31:33;;;;;;;2.58;1.20;;;;;;;;;;4951335;29;20042;-70
2023/03/15 11:34:06;;;;;;;5.03;1.23;;;;;;;;;;4954081;29;20027;-70
2023/03/15 11:36:33;;;;;;;2.30;0.98;;;;;;;;;;4946008;29;20036;-71
2023/03/15 11:39:03;;;;;;;2.95;1.00;;;;;;;;;;4914961;29;20040;-69
2023/03/15 11:41:34;;;;;;;1.63;0.80;;;;;;;;;;4915202;29;20071;-71
2023/03/15 11:44:11;;;;;;;2.85;1.20;;;;;;;;;;4915387;29;20035;-70
2023/03/15 11:46:58;;;;;;;2.55;1.10;;;;;;;;;;4915434;29;20047;-70
2023/03/15 11:49:34;;;;;;;2.58;0.93;;;;;;;;;;4915702;29;20029;-71
2023/03/15 11:52:01;;;;;;;4.40;1.30;;;;;;;;;;4898455;29;20196;-71
2023/03/15 11:54:31;;;;;;;2.53;1.08;;;;;;;;;;4915311;29;20032;-71
2023/03/15 11:57:02;;;;;;;3.13;1.13;;;;;;;;;;4915434;29;20031;-70
2023/03/15 11:59:31;;;;;;;3.67;1.15;;;;;;;;;;4898346;29;20036;-71
2023/03/15 12:02:17;;;;;;;2.80;1.20;;;;;;;;;;4915493;29;20481;-70
2023/03/15 12:04:45;;;;;;;3.25;0.90;;;;;;;;;;4894195;29;20436;-70
2023/03/15 12:07:22;;;;;;;3.15;1.20;;;;;;;;;;4894219;29;20045;-70
2023/03/15 12:09:51;;;;;;;2.95;1.10;;;;;;;;;;4893982;29;20510;-71
2023/03/15 12:12:26;;;;;;;5.05;1.38;;;;;;;;;;4894128;29;20128;-71
2023/03/15 12:15:15;;;;;;;3.00;1.30;;;;;;;;;;4892633;29;20036;-71
2023/03/15 12:17:48;;;;;;;2.42;1.38;;;;;;;;;;4875040;29;20101;-70
2023/03/15 12:20:16;;;;;;;2.80;1.00;;;;;;;;;;4874848;29;20052;-69
2023/03/15 12:22:47;;;;;;;2.78;1.05;;;;;;;;;;4850937;29;20048;-71
2023/03/15 12:25:30;;;;;;;3.92;1.05;;;;;;;;;;4869746;29;20213;-69
2023/03/15 12:27:57;;;;;;;2.80;1.00;;;;;;;;;;4860048;29;20025;-70
2023/03/15 12:30:32;;;;;;;2.22;0.95;;;;;;;;;;4866618;29;20047;-71
2023/03/15 12:32:58;;;;;;;2.70;0.93;;;;;;;;;;4867103;29;20029;-71
2023/03/15 12:35:28;;;;;;;5.75;1.20;;;;;;;;;;4862520;29;20041;-71
2023/03/15 12:37:55;;;;;;;4.32;1.50;;;;;;;;;;4874859;29;20029;-71
2023/03/15 12:40:24;;;;;;;5.57;1.27;;;;;;;;;;4878045;29;20052;-70
2023/03/15 12:42:56;;;;;;;5.90;1.52;;;;;;;;;;4877797;29;20049;-71
2023/03/15 12:45:38;;;;;;;3.42;1.20;;;;;;;;;;4874785;29;20035;-71
2023/03/15 12:48:05;;;;;;;4.05;1.17;;;;;;;;;;4878066;29;20401;-70
2023/03/15 12:50:43;;;;;;;2.92;0.98;;;;;;;;;;4877424;29;20370;-70
2023/03/15 12:53:30;;;;;;;3.55;1.00;;;;;;;;;;4877885;29;20098;-70
2023/03/15 12:55:57;;;;;;;3.45;1.48;;;;;;;;;;4928261;29;20040;-71
2023/03/15 12:58:31;;;;;;;2.70;1.25;;;;;;;;;;4928458;29;20035;-70
2023/03/15 13:00:59;;;;;;;4.40;1.20;;;;;;;;;;4934386;29;20032;-71
2023/03/15 13:03:26;;;;;;;4.45;1.38;;;;;;;;;;4938051;29;20040;-71
2023/03/15 13:05:55;;;;;;;3.70;1.15;;;;;;;;;;4943371;29;20031;-70
2023/03/15 13:08:25;;;;;;;3.20;1.27;;;;;;;;;;4935917;29;20563;-70
2023/03/15 13:11:01;;;;;;;2.15;0.98;;;;;;;;;;4936015;29;20079;-73
2023/03/15 13:13:30;;;;;;;2.83;1.15;;;;;;;;;;4936276;29;20031;-70
2023/03/15 13:16:15;;;;;;;2.72;1.15;;;;;;;;;;4943718;29;20026;-70
2023/03/15 13:18:48;;;;;;;3.97;1.25;;;;;;;;;;4935670;29;20045;-70
2023/03/15 13:21:26;;;;;;;3.25;1.17;;;;;;;;;;4935835;29;20023;-69
2023/03/15 13:23:55;;;;;;;2.67;1.27;;;;;;;;;;4935925;29;20038;-70
2023/03/15 13:26:22;;;;;;;5.05;1.30;;;;;;;;;;4944339;29;20032;-69
2023/03/15 13:28:57;;;;;;;3.45;1.20;;;;;;;;;;4935514;29;20040;-69
2023/03/15 13:31:25;;;;;;;3.03;1.30;;;;;;;;;;4938732;29;20038;-71
2023/03/15 13:33:56;;;;;;;3.05;1.05;;;;;;;;;;4935710;29;20042;-68
2023/03/15 13:36:38;;;;;;;3.75;1.13;;;;;;;;;;4943476;29;20028;-69
2023/03/15 13:39:10;;;;;;;3.85;1.05;;;;;;;;;;4934376;29;20400;-68
2023/03/15 13:41:38;;;;;;;3.40;1.23;;;;;;;;;;4935507;29;20511;-69
2023/03/15 13:44:12;;;;;;;3.10;0.90;;;;;;;;;;4935577;29;20488;-70
2023/03/15 13:46:39;;;;;;;3.85;1.25;;;;;;;;;;4941983;29;20023;-69
2023/03/15 13:49:05;;;;;;;2.38;1.20;;;;;;;;;;4935226;29;20028;-70
2023/03/15 13:51:34;;;;;;;2.90;1.10;;;;;;;;;;4934863;29;20042;-69
2023/03/15 13:54:17;;;;;;;4.30;1.25;;;;;;;;;;4935354;29;20519;-69
2023/03/15 13:57:08;;;;;;;1.67;0.98;;;;;;;;;;4943305;29;20023;-69
2023/03/15 13:59:34;;;;;;;;;;;;;;;;;;4928836;29;20055;-70
2023/03/15 14:02:02;;;;;;;3.30;1.35;;;;;;;;;;4935195;29;19929;-69
2023/03/15 14:04:31;;;;;;;5.22;1.63;;;;;;;;;;4934932;29;20481;-70
2023/03/15 14:07:08;;;;;;;4.40;1.00;;;;;;;;;;4934391;29;20016;-70
2023/03/15 14:09:35;;;;;;;3.67;1.30;;;;;;;;;;4934811;29;20392;-69
2023/03/15 14:12:16;;;;;;;4.65;1.05;;;;;;;;;;4934956;29;20024;-70
2023/03/15 14:14:49;;;;;;;3.10;1.27;;;;;;;;;;4934712;29;20404;-68
2023/03/15 14:17:33;;;;;;;4.18;1.45;;;;;;;;;;4942447;29;20499;-69
2023/03/15 14:20:07;;;;;;;3.53;1.00;;;;;;;;;;4934785;29;20102;-69
2023/03/15 14:22:56;;;;;;;3.40;1.17;;;;;;;;;;4934871;29;20396;-69
2023/03/15 14:25:23;;;;;;;3.92;0.93;;;;;;;;;;4936058;29;20035;-69
2023/03/15 14:27:50;;;;;;;3.38;1.20;;;;;;;;;;4941336;29;20038;-69
2023/03/15 14:30:18;;;;;;;3.15;1.38;;;;;;;;;;4940463;29;20065;-69
2023/03/15 14:32:51;;;;;;;2.92;1.17;;;;;;;;;;4950120;29;20024;-69
2023/03/15 14:35:25;;;;;;;4.13;1.10;;;;;;;;;;4933926;29;20440;-71
2023/03/15 14:38:00;;;;;;;2.33;1.17;;;;;;;;;;4929314;29;20036;-69
2023/03/15 14:40:34;;;;;;;2.28;1.20;;;;;;;;;;4934818;29;20028;-69
2023/03/15 14:43:05;;;;;;;4.70;1.17;;;;;;;;;;4948285;29;20028;-69
2023/03/15 14:45:32;;;;;;;2.33;1.30;;;;;;;;;;4935588;29;20039;-69
2023/03/15 14:48:00;;;;;;;3.50;1.50;;;;;;;;;;4940779;29;20039;-70
2023/03/15 14:50:29;;;;;;;5.43;1.25;;;;;;;;;;4933939;29;20023;-70
2023/03/15 14:52:56;;;;;;;3.40;1.00;;;;;;;;;;4934282;29;20034;-69
2023/03/15 14:55:24;;;;;;;4.05;1.45;;;;;;;;;;4933740;29;20020;-69
2023/03/15 14:57:50;;;;;;;4.00;1.35;;;;;;;;;;4941776;29;20526;-69
2023/03/15 15:00:19;;;;;;;3.35;1.20;;;;;;;;;;4934113;29;20042;-69
2023/03/15 15:02:47;;;;;;;2.78;1.17;;;;;;;;;;4933452;29;20024;-70
2023/03/15 15:05:30;;;;;;;3.03;1.10;;;;;;;;;;4933932;29;20090;-70
2023/03/15 15:08:00;;;;;;;5.93;1.63;;;;;;;;;;4926476;29;20496;-70
2023/03/15 15:10:27;;;;;;;;;;;;;;;;;;4934650;29;20358;-69
2023/03/15 15:12:53;;;;;;;3.05;1.13;;;;;;;;;;4933671;29;20446;-70
2023/03/15 15:15:21;;;;;;;6.05;1.35;;;;;;;;;;4934173;29;20028;-70
2023/03/15 15:17:48;;;;;;;2.95;1.00;;;;;;;;;;4941334;29;20027;-70
2023/03/15 15:20:16;;;;;;;3.42;1.10;;;;;;;;;;4934475;29;20040;-69
2023/03/15 15:22:43;;;;;;;3.65;1.20;;;;;;;;;;4933932;29;20034;-69
2023/03/15 15:25:19;;;;;;;3.33;1.00;;;;;;;;;;4934161;29;20024;-69
2023/03/15 15:27:47;;;;;;;4.65;1.10;;;;;;;;;;4941986;29;20030;-70
2023/03/15 15:30:20;;;;;;;2.65;1.08;;;;;;;;;;4940093;29;20411;-69
2023/03/15 15:32:47;;;;;;;3.60;1.20;;;;;;;;;;4953543;29;20027;-69
2023/03/15 15:35:15;;;;;;;5.28;1.20;;;;;;;;;;4953046;29;20031;-69
2023/03/15 15:37:42;;;;;;;3.97;1.10;;;;;;;;;;4953358;29;20419;-70
2023/03/15 15:40:16;;;;;;;6.78;1.30;;;;;;;;;;4953145;29;20034;-70
2023/03/15 15:42:43;;;;;;;4.85;0.98;;;;;;;;;;4953931;29;20038;-68
2023/03/15 15:45:16;;;;;;;4.15;1.40;;;;;;;;;;4953745;29;20503;-70
2023/03/15 15:47:43;;;;;;;4.45;1.10;;;;;;;;;;4953663;29;20027;-69
2023/03/15 15:50:11;;;;;;;6.13;1.17;;;;;;;;;;4953467;29;20026;-69
2023/03/15 15:52:39;;;;;;;5.30;1.40;;;;;;;;;;4953695;29;20027;-69
2023/03/15 15:55:13;;;;;;;5.13;1.20;;;;;;;;;;4953625;29;20019;-69
2023/03/15 15:57:40;;;;;;;4.32;1.10;;;;;;;;;;4952784;29;20416;-69
2023/03/15 16:00:07;;;;;;;2.50;0.90;;;;;;;;;;4953573;29;20031;-70